Time;durP1;ratioP1;P1;durP2;ratioP2;P2;SDS_P1;SDS_P2;PMS_P1;PMS_P2;Temp;Humidity;BMP_temperature;BMP_pressure;BME280_temperature;BME280_humidity;BME280_pressure;Samples;Min_cycle;Max_cycle;Signal;HPM_P1;HPM_P2
2021/01/23 00:00:20;;;;;;;5.90;2.20;;;;;;;27.94;26.49;94571.53;5056839;28;20496;-41
2021/01/23 00:02:46;;;;;;;5.45;2.80;;;;;;;27.92;26.55;94572.53;5056494;28;20126;-40
2021/01/23 00:05:12;;;;;;;5.22;2.67;;;;;;;27.94;26.64;94571.53;5055481;28;20753;-42
2021/01/23 00:07:38;;;;;;;5.13;2.42;;;;;;;27.88;26.63;94573.81;5051989;28;22896;-39
2021/01/23 00:10:04;;;;;;;4.15;2.38;;;;;;;27.92;26.23;94575.16;5043625;28;20028;-39
2021/01/23 00:12:30;;;;;;;4.07;2.22;;;;;;;27.91;26.42;94584.03;5048285;28;20052;-42
2021/01/23 00:14:55;;;;;;;4.53;2.20;;;;;;;27.91;26.26;94577.94;5051793;28;20045;-39
2021/01/23 00:17:21;;;;;;;5.22;2.20;;;;;;;27.92;26.22;94585.69;5052732;28;20382;-39
2021/01/23 00:19:46;;;;;;;5.13;2.20;;;;;;;27.92;26.08;94590.97;5050290;28;20028;-39
2021/01/23 00:22:12;;;;;;;3.40;2.17;;;;;;;27.92;26.24;94598.84;5050820;28;20557;-40
2021/01/23 00:24:38;;;;;;;3.97;1.98;;;;;;;27.91;25.92;94596.38;5072733;28;20035;-39
2021/01/23 00:27:04;;;;;;;3.20;2.05;;;;;;;27.90;25.85;94592.91;5057862;28;20040;-39
2021/01/23 00:29:29;;;;;;;3.80;2.05;;;;;;;27.89;25.97;94596.50;5047477;28;20051;-42
2021/01/23 00:31:55;;;;;;;3.60;2.00;;;;;;;27.90;25.85;94611.34;5053043;28;20040;-40
2021/01/23 00:34:21;;;;;;;5.38;1.92;;;;;;;27.89;26.05;94608.84;5056881;28;20052;-41
2021/01/23 00:36:46;;;;;;;4.40;1.90;;;;;;;27.89;26.00;94607.03;5056800;28;20029;-39
2021/01/23 00:39:12;;;;;;;2.65;1.60;;;;;;;27.88;26.17;94608.03;5057783;28;20049;-38
2021/01/23 00:41:37;;;;;;;4.40;2.10;;;;;;;27.88;26.04;94609.84;5055370;28;20043;-42
2021/01/23 00:44:03;;;;;;;4.75;2.03;;;;;;;27.89;26.07;94620.19;5057012;28;20079;-39
2021/01/23 00:46:28;;;;;;;3.42;1.90;;;;;;;27.87;26.10;94624.78;5054471;28;20040;-37
2021/01/23 00:48:54;;;;;;;3.30;1.83;;;;;;;27.86;26.14;94623.16;5064302;28;20048;-41
2021/01/23 00:51:20;;;;;;;4.93;2.00;;;;;;;27.86;25.88;94627.56;5053583;28;20037;-39
2021/01/23 00:53:45;;;;;;;2.60;1.70;;;;;;;27.87;25.88;94629.22;5059846;28;20032;-41
2021/01/23 00:56:11;;;;;;;3.65;1.83;;;;;;;27.85;26.10;94632.03;5072642;28;20785;-38
2021/01/23 00:58:36;;;;;;;2.45;1.50;;;;;;;27.86;25.87;94635.47;5048165;28;20036;-42
2021/01/23 01:01:03;;;;;;;2.92;1.55;;;;;;;27.85;26.04;94639.91;5048026;28;20028;-44
2021/01/23 01:03:28;;;;;;;3.42;1.70;;;;;;;27.85;25.79;94646.97;5054359;28;20693;-39
2021/01/23 01:05:54;;;;;;;2.50;1.58;;;;;;;27.85;25.89;94653.06;5054608;28;20094;-37
2021/01/23 01:08:20;;;;;;;2.60;1.65;;;;;;;27.85;25.55;94660.13;5050031;28;20040;-39
2021/01/23 01:10:45;;;;;;;2.67;1.45;;;;;;;27.84;25.74;94661.13;5046301;28;20032;-42
2021/01/23 01:13:14;;;;;;;3.55;1.42;;;;;;;27.83;25.64;94665.53;5052581;28;20044;-39
2021/01/23 01:15:40;;;;;;;2.90;1.50;;;;;;;27.83;25.50;94668.19;5052549;28;20028;-39
2021/01/23 01:18:05;;;;;;;2.78;1.60;;;;;;;27.83;25.91;94665.53;5051021;28;20144;-41
2021/01/23 01:20:31;;;;;;;2.70;1.60;;;;;;;27.82;25.91;94677.06;5055045;28;20036;-42
2021/01/23 01:22:56;;;;;;;2.67;1.50;;;;;;;27.85;25.75;94676.78;5043329;28;20045;-38
2021/01/23 01:25:22;;;;;;;2.00;1.40;;;;;;;27.83;25.91;94685.75;5053182;28;20098;-38
2021/01/23 01:27:48;;;;;;;4.85;1.50;;;;;;;27.83;26.10;94686.59;5053679;28;20114;-41
2021/01/23 01:30:16;;;;;;;2.45;1.60;;;;;;;27.84;25.80;94687.44;5050900;28;20536;-42
2021/01/23 01:32:42;;;;;;;3.22;1.63;;;;;;;27.84;25.97;94692.69;5051666;28;20041;-42
2021/01/23 01:35:09;;;;;;;3.20;1.45;;;;;;;27.83;25.90;94696.28;5056637;28;20025;-38
2021/01/23 01:37:34;;;;;;;2.47;1.45;;;;;;;27.83;26.03;94717.34;5061736;28;20032;-39
2021/01/23 01:40:00;;;;;;;2.80;1.60;;;;;;;27.83;25.87;94707.66;5054120;28;20106;-38
2021/01/23 01:42:25;;;;;;;2.90;1.40;;;;;;;27.84;25.86;94724.28;5064533;28;20032;-41
2021/01/23 01:44:51;;;;;;;1.92;1.50;;;;;;;27.82;25.90;94726.22;5056038;28;20060;-38
2021/01/23 01:47:17;;;;;;;2.83;1.40;;;;;;;27.81;25.93;94735.94;5055180;28;20090;-39
2021/01/23 01:49:42;;;;;;;1.80;1.13;;;;;;;27.83;25.89;94735.75;5063509;28;20037;-39
2021/01/23 01:52:08;;;;;;;2.47;1.20;;;;;;;27.81;26.28;94738.56;5063444;28;20036;-38
2021/01/23 01:54:33;;;;;;;2.05;1.00;;;;;;;27.81;25.76;94741.19;5058564;28;20269;-42
2021/01/23 01:56:58;;;;;;;3.08;1.40;;;;;;;27.81;25.78;94743.81;5057967;28;20044;-39
2021/01/23 01:59:25;;;;;;;1.70;1.00;;;;;;;27.80;26.10;94729.00;5059774;28;20085;-39
2021/01/23 02:02:03;;;;;;;1.40;0.98;;;;;;;27.80;26.14;94741.34;5068316;28;20048;-38
2021/01/23 02:04:43;;;;;;;2.42;1.30;;;;;;;27.80;25.91;94742.16;5030829;28;20054;-39
2021/01/23 02:07:58;;;;;;;3.42;1.60;;;;;;;27.82;25.93;94752.53;5055156;28;20078;-38
2021/01/23 02:10:38;;;;;;;2.38;1.27;;;;;;;27.81;25.90;94753.50;5033271;28;20079;-36
2021/01/23 02:13:30;;;;;;;1.73;0.90;;;;;;;27.80;26.18;94755.31;5055514;28;20101;-38
2021/01/23 02:15:59;;;;;;;2.05;1.45;;;;;;;27.79;25.86;94756.28;5049161;28;20878;-37
2021/01/23 02:18:26;;;;;;;2.20;1.30;;;;;;;27.78;25.99;94762.53;5057081;28;20094;-42
2021/01/23 02:21:13;;;;;;;1.45;1.08;;;;;;;27.78;25.76;94773.06;5041418;28;20051;-39
2021/01/23 02:23:45;;;;;;;1.48;0.95;;;;;;;27.77;26.08;94780.09;5054724;28;20025;-41
2021/01/23 02:26:58;;;;;;;3.30;1.30;;;;;;;27.76;26.37;94785.50;5049674;28;20605;-39
2021/01/23 02:29:33;;;;;;;1.90;1.17;;;;;;;27.77;26.35;94797.72;5015187;28;20034;-40
2021/01/23 02:32:00;;;;;;;2.30;1.30;;;;;;;27.75;26.42;94797.88;5050118;28;20701;-42
2021/01/23 02:34:26;;;;;;;2.53;1.20;;;;;;;27.75;26.23;94789.13;5054472;28;20040;-39
2021/01/23 02:36:51;;;;;;;2.03;1.30;;;;;;;27.74;26.25;94790.09;5056949;28;20047;-39
2021/01/23 02:39:19;;;;;;;1.67;0.90;;;;;;;27.73;26.63;94791.09;5037241;28;20041;-42
2021/01/23 02:41:46;;;;;;;1.83;0.90;;;;;;;27.74;26.29;94800.63;5057526;28;20036;-41
2021/01/23 02:44:12;;;;;;;2.38;1.00;;;;;;;27.71;26.18;94800.91;5060979;28;20036;-37
2021/01/23 02:46:38;;;;;;;2.30;1.30;;;;;;;27.76;26.20;94811.81;5062733;28;20056;-39
2021/01/23 02:49:04;;;;;;;2.05;1.00;;;;;;;27.75;26.03;94818.06;5049310;28;20040;-39
2021/01/23 02:51:44;;;;;;;1.38;1.02;;;;;;;27.75;26.12;94816.28;5066570;28;20059;-39
2021/01/23 02:54:17;;;;;;;1.95;1.10;;;;;;;27.75;26.48;94826.81;5052185;28;20052;-44
2021/01/23 02:56:43;;;;;;;1.67;1.00;;;;;;;27.74;26.56;94829.56;5034613;28;20086;-39
2021/01/23 02:59:08;;;;;;;1.60;0.90;;;;;;;27.75;26.48;94832.06;5053208;28;20048;-39
2021/01/23 03:01:36;;;;;;;1.02;0.90;;;;;;;27.74;26.60;94830.41;5050557;28;20151;-40
2021/01/23 03:04:01;;;;;;;2.72;0.98;;;;;;;27.73;26.49;94834.00;5071884;28;20067;-42
2021/01/23 03:06:27;;;;;;;1.30;1.00;;;;;;;27.74;26.47;94834.84;5055797;28;20509;-38
2021/01/23 03:08:52;;;;;;;1.58;1.00;;;;;;;27.73;26.19;94844.53;5049100;28;20041;-41
2021/01/23 03:11:18;;;;;;;1.58;0.90;;;;;;;27.74;26.24;94845.38;5053917;28;20041;-42
2021/01/23 03:13:43;;;;;;;2.03;1.20;;;;;;;27.74;26.05;94842.72;5046061;28;20524;-45
2021/01/23 03:16:09;;;;;;;1.55;1.10;;;;;;;27.73;26.21;94849.78;5054071;28;20036;-36
2021/01/23 03:18:34;;;;;;;1.48;0.93;;;;;;;27.73;26.46;94855.06;5052756;28;20712;-39
2021/01/23 03:21:00;;;;;;;0.70;0.68;;;;;;;27.74;26.18;94861.16;5056432;28;20429;-43
2021/01/23 03:23:26;;;;;;;1.27;0.80;;;;;;;27.73;26.17;94870.03;5046926;28;20071;-43
2021/01/23 03:25:52;;;;;;;1.13;0.85;;;;;;;27.73;26.30;94870.84;5062090;28;20036;-38
2021/01/23 03:28:20;;;;;;;1.23;0.82;;;;;;;27.71;26.45;94869.31;5055288;28;20447;-40
2021/01/23 03:30:45;;;;;;;1.25;1.00;;;;;;;27.72;26.45;94878.91;5052931;28;22632;-38
2021/01/23 03:33:12;;;;;;;2.45;1.05;;;;;;;27.70;26.35;94872.94;5052780;28;20501;-41
2021/01/23 03:35:37;;;;;;;1.23;0.88;;;;;;;27.70;26.23;94886.09;5062849;28;20048;-40
2021/01/23 03:38:04;;;;;;;1.55;0.88;;;;;;;27.70;26.52;94886.09;5053309;28;20068;-42
2021/01/23 03:40:30;;;;;;;1.10;0.70;;;;;;;27.69;26.42;94884.44;5053246;28;20047;-39
2021/01/23 03:42:55;;;;;;;1.35;0.82;;;;;;;27.69;26.50;94889.69;5061518;28;20501;-40
2021/01/23 03:45:21;;;;;;;1.02;0.77;;;;;;;27.69;26.29;94892.34;5056207;28;20048;-39
2021/01/23 03:47:47;;;;;;;0.90;0.68;;;;;;;27.67;26.29;94896.88;5071655;28;20460;-42
2021/01/23 03:50:13;;;;;;;2.97;0.88;;;;;;;27.68;26.43;94895.94;5052288;28;20052;-38
2021/01/23 03:52:39;;;;;;;1.20;0.75;;;;;;;27.67;26.36;94896.88;5069066;28;20767;-38
2021/01/23 03:55:05;;;;;;;1.65;0.70;;;;;;;27.68;26.30;94901.19;5057098;28;20059;-44
2021/01/23 03:57:31;;;;;;;1.30;0.77;;;;;;;27.67;26.43;94904.78;5050505;28;20044;-34
2021/01/23 03:59:56;;;;;;;2.58;0.68;;;;;;;27.68;26.67;94914.34;5057596;28;20528;-41
2021/01/23 04:02:21;;;;;;;1.98;0.60;;;;;;;27.67;26.55;94912.69;5055547;28;20079;-41
2021/01/23 04:04:47;;;;;;;1.20;0.88;;;;;;;27.67;26.55;94912.69;5042185;28;20040;-42
2021/01/23 04:07:13;;;;;;;1.08;0.55;;;;;;;27.67;26.64;94907.41;5044644;28;20044;-43
2021/01/23 04:09:39;;;;;;;1.20;0.70;;;;;;;27.65;26.20;94911.03;5048593;28;20145;-41
2021/01/23 04:12:07;;;;;;;0.90;0.70;;;;;;;27.65;26.38;94916.28;5054037;28;20567;-39
2021/01/23 04:14:32;;;;;;;0.57;0.45;;;;;;;27.64;26.55;94917.25;5046043;28;20098;-41
2021/01/23 04:16:58;;;;;;;1.15;0.65;;;;;;;27.63;26.67;94920.88;5050076;28;20750;-36
2021/01/23 04:19:24;;;;;;;0.70;0.55;;;;;;;27.64;26.61;94919.06;5052332;28;20043;-38
2021/01/23 04:21:50;;;;;;;1.25;0.80;;;;;;;27.64;26.73;94919.88;5048682;28;20044;-38
2021/01/23 04:24:16;;;;;;;0.90;0.63;;;;;;;27.64;26.53;94914.63;5046382;28;20517;-38
2021/01/23 04:26:42;;;;;;;2.78;0.77;;;;;;;27.64;26.58;94919.06;5054728;28;20044;-36
2021/01/23 04:29:07;;;;;;;1.13;0.63;;;;;;;27.63;26.34;94915.59;5056956;28;20040;-41
2021/01/23 04:31:34;;;;;;;0.88;0.65;;;;;;;27.64;26.80;94919.88;5044096;28;20072;-41
2021/01/23 04:34:00;;;;;;;0.95;0.85;;;;;;;27.64;26.59;94916.41;5055617;28;20040;-39
2021/01/23 04:36:25;;;;;;;0.55;0.50;;;;;;;27.64;26.70;94922.53;5052155;28;20489;-40
2021/01/23 04:38:51;;;;;;;0.80;0.50;;;;;;;27.63;26.50;94917.41;5053576;28;20044;-42
2021/01/23 04:41:17;;;;;;;1.25;0.73;;;;;;;27.63;26.77;94914.75;5054735;28;20044;-39
2021/01/23 04:43:44;;;;;;;1.55;0.60;;;;;;;27.63;26.65;94906.88;5062982;28;20045;-37
2021/01/23 04:46:10;;;;;;;1.67;0.57;;;;;;;27.62;26.85;94911.28;5057315;28;20520;-42
2021/01/23 04:48:37;;;;;;;1.27;0.70;;;;;;;27.63;26.81;94912.97;5056826;28;20037;-39
2021/01/23 04:51:03;;;;;;;1.60;0.57;;;;;;;27.60;26.43;94907.94;5048593;28;20131;-37
2021/01/23 04:53:28;;;;;;;0.95;0.60;;;;;;;27.62;26.56;94916.56;5052651;28;20489;-44
2021/01/23 04:55:54;;;;;;;1.00;0.50;;;;;;;27.62;26.52;94908.66;5052455;28;20106;-38
2021/01/23 04:58:19;;;;;;;0.70;0.60;;;;;;;27.61;26.88;94914.91;5051714;28;20033;-38
2021/01/23 05:00:45;;;;;;;0.75;0.57;;;;;;;27.61;26.28;94909.63;5058948;28;20045;-44
2021/01/23 05:03:10;;;;;;;1.02;0.82;;;;;;;27.61;26.65;94917.53;5059131;28;20059;-40
2021/01/23 05:05:36;;;;;;;0.90;0.60;;;;;;;27.60;26.68;94907.94;5048358;28;20044;-41
2021/01/23 05:08:11;;;;;;;0.73;0.47;;;;;;;27.60;26.75;94907.94;5059353;28;20062;-43
2021/01/23 05:10:38;;;;;;;1.02;0.60;;;;;;;27.60;26.73;94907.94;5044816;28;20051;-40
2021/01/23 05:13:16;;;;;;;0.82;0.60;;;;;;;27.58;26.79;94904.59;5063338;28;20041;-37
2021/01/23 05:15:42;;;;;;;1.10;0.60;;;;;;;27.58;26.78;94904.59;5051322;28;20047;-39
2021/01/23 05:18:09;;;;;;;0.60;0.50;;;;;;;27.58;26.59;94901.97;5054356;28;20045;-39
2021/01/23 05:20:41;;;;;;;4.28;0.65;;;;;;;27.57;26.41;94907.41;5051495;28;20414;-42
2021/01/23 05:23:31;;;;;;;5.13;0.43;;;;;;;27.54;26.27;94911.16;5056409;28;20115;-41
2021/01/23 05:26:00;;;;;;;1.50;0.50;;;;;;;27.53;26.72;94906.84;5051109;28;20102;-37
2021/01/23 05:28:30;;;;;;;4.00;0.65;;;;;;;27.53;26.73;94917.34;5058776;28;20043;-39
2021/01/23 05:30:56;;;;;;;0.73;0.50;;;;;;;27.53;26.91;94914.72;5053800;28;20170;-42
2021/01/23 05:33:23;;;;;;;1.85;0.50;;;;;;;27.52;26.70;94919.16;5048268;28;20136;-40
2021/01/23 05:36:01;;;;;;;0.68;0.35;;;;;;;27.51;26.63;94922.75;5055810;28;20444;-38
2021/01/23 05:38:31;;;;;;;0.30;0.30;;;;;;;27.52;26.62;94920.97;5052798;28;20091;-41
2021/01/23 05:41:08;;;;;;;0.65;0.50;;;;;;;27.51;26.98;94921.94;5047420;28;20087;-39
2021/01/23 05:43:37;;;;;;;0.70;0.68;;;;;;;27.51;26.47;94928.00;5055352;28;20042;-39
2021/01/23 05:46:06;;;;;;;0.30;0.30;;;;;;;27.51;26.57;94921.94;5058813;28;20041;-39
2021/01/23 05:48:33;;;;;;;0.95;0.50;;;;;;;27.51;27.04;94922.75;5058449;28;20041;-36
2021/01/23 05:50:58;;;;;;;1.08;0.60;;;;;;;27.51;26.79;94921.94;5057834;28;20452;-44
2021/01/23 05:53:24;;;;;;;1.30;0.45;;;;;;;27.51;26.94;94928.00;5043757;28;20049;-40
2021/01/23 05:55:49;;;;;;;0.60;0.50;;;;;;;27.53;26.91;94917.34;5052290;28;20049;-39
2021/01/23 05:58:16;;;;;;;0.70;0.43;;;;;;;27.52;26.65;94916.53;5054978;28;20447;-39
2021/01/23 06:00:41;;;;;;;0.40;0.40;;;;;;;27.51;26.74;94914.03;5045235;28;20046;-41
2021/01/23 06:03:07;;;;;;;1.23;0.52;;;;;;;27.52;26.75;94915.69;5057179;28;20141;-43
2021/01/23 06:05:32;;;;;;;1.05;0.30;;;;;;;27.52;26.60;94910.44;5057732;28;20048;-42
2021/01/23 06:07:59;;;;;;;0.82;0.50;;;;;;;27.51;27.01;94908.78;5062014;28;20049;-39
2021/01/23 06:10:24;;;;;;;0.65;0.63;;;;;;;27.50;26.81;94915.84;5053155;28;20047;-40
2021/01/23 06:12:53;;;;;;;0.45;0.40;;;;;;;27.50;26.60;94913.19;5058978;28;20029;-41
2021/01/23 06:15:34;;;;;;;3.22;0.60;;;;;;;27.50;26.91;94912.38;5042915;28;20060;-44
2021/01/23 06:18:03;;;;;;;2.50;0.45;;;;;;;27.50;26.89;94912.38;5053989;28;20041;-41
2021/01/23 06:20:40;;;;;;;2.22;0.30;;;;;;;27.50;26.60;94913.19;5048534;28;20036;-43
2021/01/23 06:23:06;;;;;;;0.35;0.20;;;;;;;27.49;27.06;94915.97;5059241;28;20049;-43
2021/01/23 06:25:50;;;;;;;0.47;0.40;;;;;;;27.50;26.63;94917.66;5054261;28;20125;-38
2021/01/23 06:28:41;;;;;;;0.50;0.30;;;;;;;27.51;26.73;94919.31;5052404;28;20090;-42
2021/01/23 06:31:25;;;;;;;0.80;0.30;;;;;;;27.49;26.63;94916.81;5047991;28;20044;-41
2021/01/23 06:33:51;;;;;;;0.65;0.38;;;;;;;27.49;27.04;94908.91;5060657;28;20540;-36
2021/01/23 06:36:16;;;;;;;1.00;0.45;;;;;;;27.50;26.69;94907.13;5057445;28;20123;-39
2021/01/23 06:39:02;;;;;;;1.15;0.40;;;;;;;27.50;27.04;94913.19;5058136;28;20044;-41
2021/01/23 06:41:28;;;;;;;0.57;0.40;;;;;;;27.50;26.82;94917.66;5053432;28;20029;-40
2021/01/23 06:44:06;;;;;;;0.30;0.30;;;;;;;27.50;26.61;94915.03;5057395;28;20044;-39
2021/01/23 06:46:35;;;;;;;0.85;0.30;;;;;;;27.50;26.59;94913.19;5053694;28;20779;-42
2021/01/23 06:49:01;;;;;;;0.88;0.50;;;;;;;27.51;26.96;94916.69;5063162;28;20074;-41
2021/01/23 06:51:46;;;;;;;0.35;0.35;;;;;;;27.50;26.71;94913.19;5051992;28;20337;-37
2021/01/23 06:54:18;;;;;;;0.30;0.30;;;;;;;27.47;26.78;94913.50;5059191;28;20128;-44
2021/01/23 06:56:52;;;;;;;0.85;0.30;;;;;;;27.50;26.81;94912.38;5059578;28;20720;-45
2021/01/23 06:59:21;;;;;;;0.40;0.40;;;;;;;27.50;27.13;94917.66;5051532;28;20502;-39
2021/01/23 07:01:54;;;;;;;0.30;0.30;;;;;;;27.50;26.80;94925.53;5048929;28;20037;-40
2021/01/23 07:04:19;;;;;;;0.50;0.32;;;;;;;27.51;26.79;94921.94;5046874;28;20036;-38
2021/01/23 07:06:44;;;;;;;0.28;0.28;;;;;;;27.53;27.01;94922.63;5046070;28;20043;-39
2021/01/23 07:09:10;;;;;;;1.02;0.40;;;;;;;27.52;27.16;94920.97;5049913;28;20040;-39
2021/01/23 07:11:35;;;;;;;0.68;0.30;;;;;;;27.53;27.03;94922.63;5057186;28;20125;-37
2021/01/23 07:14:05;;;;;;;0.28;0.28;;;;;;;27.53;27.08;94922.63;5057698;28;20379;-41
2021/01/23 07:16:32;;;;;;;0.43;0.30;;;;;;;27.52;26.68;94927.06;5058926;28;20790;-41
2021/01/23 07:19:03;;;;;;;1.10;0.38;;;;;;;27.52;26.83;94927.06;5063119;28;20109;-40
2021/01/23 07:21:30;;;;;;;0.43;0.40;;;;;;;27.53;26.73;94930.50;5057300;28;20048;-39
2021/01/23 07:23:56;;;;;;;0.20;0.20;;;;;;;27.53;27.00;94927.88;5050174;28;20842;-42
2021/01/23 07:26:22;;;;;;;0.88;0.32;;;;;;;27.53;26.76;94917.34;5052622;28;20044;-38
2021/01/23 07:28:48;;;;;;;0.80;0.40;;;;;;;27.53;26.78;94922.63;5052829;28;20068;-38
2021/01/23 07:31:23;;;;;;;0.17;0.17;;;;;;;27.53;27.00;94917.34;5052965;28;20049;-39
2021/01/23 07:33:49;;;;;;;0.43;0.20;;;;;;;27.53;27.00;94922.63;5049273;28;20036;-39
2021/01/23 07:36:33;;;;;;;0.30;0.30;;;;;;;27.53;26.84;94918.19;5049232;28;20041;-42
2021/01/23 07:39:25;;;;;;;0.93;0.38;;;;;;;27.52;26.59;94916.53;5052862;28;20063;-38
2021/01/23 07:41:52;;;;;;;4.47;0.40;;;;;;;27.51;27.08;94914.03;5046476;28;20149;-41
2021/01/23 07:44:18;;;;;;;2.58;0.40;;;;;;;27.51;26.93;94914.84;5050565;28;20036;-40
2021/01/23 07:46:45;;;;;;;0.63;0.40;;;;;;;27.52;26.95;94915.69;5046158;28;20405;-40
2021/01/23 07:49:21;;;;;;;0.85;0.45;;;;;;;27.52;27.08;94911.28;5052703;28;20041;-39
2021/01/23 07:51:47;;;;;;;0.60;0.30;;;;;;;27.52;26.87;94913.06;5048877;28;20584;-41
2021/01/23 07:54:13;;;;;;;1.77;0.25;;;;;;;27.52;26.88;94906.03;5047727;28;20051;-43
2021/01/23 07:56:59;;;;;;;0.40;0.38;;;;;;;27.53;26.73;94906.84;5045347;28;20045;-39
2021/01/23 07:59:41;;;;;;;3.53;0.50;;;;;;;27.52;25.23;94899.91;5052164;28;20036;-36
2021/01/23 08:02:06;;;;;;;;;;;;;;;27.51;25.11;94903.53;5047997;28;20040;-42
2021/01/23 08:04:32;;;;;;;1.67;0.50;;;;;;;27.47;25.40;94902.13;5049554;28;19942;-40
2021/01/23 08:07:16;;;;;;;5.35;0.70;;;;;;;27.48;25.62;94895.91;5046343;28;20046;-39
2021/01/23 08:09:43;;;;;;;3.00;0.77;;;;;;;27.46;25.51;94905.75;5050806;28;20040;-42
2021/01/23 08:12:18;;;;;;;3.53;0.77;;;;;;;27.44;25.46;94910.28;5050959;28;20051;-37
2021/01/23 08:14:53;;;;;;;1.33;0.50;;;;;;;27.41;25.82;94903.50;5046951;28;20040;-37
2021/01/23 08:17:20;;;;;;;2.13;0.60;;;;;;;27.41;25.73;94907.97;5049148;28;20037;-42
2021/01/23 08:19:51;;;;;;;1.20;0.50;;;;;;;27.40;26.12;94907.13;5049659;28;20130;-39
2021/01/23 08:22:16;;;;;;;1.23;0.45;;;;;;;27.38;26.20;94902.00;5047650;28;20041;-43
2021/01/23 08:24:42;;;;;;;0.55;0.43;;;;;;;27.38;25.94;94899.34;5050068;28;20036;-46
2021/01/23 08:27:21;;;;;;;1.15;0.50;;;;;;;27.38;26.24;94898.53;5049029;28;20453;-37
2021/01/23 08:29:52;;;;;;;2.28;1.33;;;;;;;27.36;25.97;94901.31;5049726;28;20105;-44
2021/01/23 08:32:18;;;;;;;3.42;0.73;;;;;;;27.36;26.22;94900.47;5049318;28;20047;-40
2021/01/23 08:34:44;;;;;;;1.33;0.52;;;;;;;27.36;26.27;94896.06;5050033;28;20040;-41
2021/01/23 08:37:10;;;;;;;0.57;0.40;;;;;;;27.37;26.62;94896.88;5064473;28;20064;-39
2021/01/23 08:39:45;;;;;;;2.50;0.60;;;;;;;27.37;26.45;94892.44;5045188;28;20029;-45
2021/01/23 08:42:11;;;;;;;1.17;0.63;;;;;;;27.37;26.46;94897.69;5050520;28;20044;-39
2021/01/23 08:44:37;;;;;;;2.92;0.60;;;;;;;27.37;26.34;94889.81;5049212;28;20048;-41
2021/01/23 08:47:03;;;;;;;1.58;0.63;;;;;;;27.37;26.37;94886.34;5048584;28;20062;-42
2021/01/23 08:49:29;;;;;;;0.47;0.47;;;;;;;27.38;26.98;94882.72;5045728;28;20438;-41
2021/01/23 08:51:56;;;;;;;1.73;0.60;;;;;;;27.38;26.92;94880.94;5049517;28;20049;-41
2021/01/23 08:54:21;;;;;;;3.05;0.57;;;;;;;27.39;27.49;94879.16;5050046;28;20067;-38
2021/01/23 08:56:47;;;;;;;4.00;0.60;;;;;;;27.40;27.42;94880.81;5046419;28;20405;-39
2021/01/23 08:59:13;;;;;;;0.85;0.43;;;;;;;27.42;27.06;94878.06;5043517;28;20098;-39
2021/01/23 09:01:39;;;;;;;0.65;0.40;;;;;;;27.42;27.21;94870.97;5047240;28;20059;-38
2021/01/23 09:04:04;;;;;;;1.42;0.65;;;;;;;27.46;27.41;94879.44;5049268;28;20075;-40
2021/01/23 09:06:30;;;;;;;0.63;0.40;;;;;;;27.45;27.59;94873.34;5044841;28;20036;-44
2021/01/23 09:08:55;;;;;;;2.03;0.40;;;;;;;27.47;27.29;94870.56;5049802;28;20048;-39
2021/01/23 09:11:21;;;;;;;0.50;0.50;;;;;;;27.48;27.16;94872.22;5050778;28;20055;-38
2021/01/23 09:13:47;;;;;;;0.82;0.40;;;;;;;27.49;27.32;94863.34;5048259;28;20036;-35
2021/01/23 09:16:13;;;;;;;0.75;0.40;;;;;;;27.50;27.43;94865.03;5049817;28;20043;-43
2021/01/23 09:18:38;;;;;;;1.80;0.60;;;;;;;27.52;27.62;94866.56;5045913;28;20045;-40
2021/01/23 09:21:04;;;;;;;2.30;0.50;;;;;;;27.53;27.45;94864.75;5051228;28;20036;-44
2021/01/23 09:23:30;;;;;;;1.17;0.52;;;;;;;27.55;27.77;94854.91;5048536;28;20051;-38
2021/01/23 09:25:56;;;;;;;1.23;0.40;;;;;;;27.55;27.30;94857.56;5049478;28;20044;-38
2021/01/23 09:28:25;;;;;;;3.38;1.70;;;;;;;27.50;21.35;94849.25;5051049;28;20040;-39
2021/01/23 09:30:50;;;;;;;9.88;3.58;;;;;;;27.17;18.49;94848.69;5049263;28;20632;-41
2021/01/23 09:33:15;;;;;;;13.35;3.05;;;;;;;26.86;17.72;94847.78;5055048;28;20036;-42
2021/01/23 09:35:41;;;;;;;9.30;2.60;;;;;;;26.53;18.09;94849.78;5053736;28;20045;-41
2021/01/23 09:38:06;;;;;;;8.15;1.90;;;;;;;26.26;19.12;94845.97;5051020;28;20040;-41
2021/01/23 09:40:32;;;;;;;15.90;1.92;;;;;;;26.12;20.19;94848.91;5047445;28;20051;-36
2021/01/23 09:42:58;;;;;;;5.20;1.88;;;;;;;26.06;21.09;94845.84;5050904;28;20076;-38
2021/01/23 09:45:23;;;;;;;5.35;1.77;;;;;;;26.05;22.16;94846.81;5049170;28;20493;-44
2021/01/23 09:47:49;;;;;;;3.05;1.73;;;;;;;26.07;22.67;94847.50;5053003;28;20137;-41
2021/01/23 09:50:18;;;;;;;5.18;1.75;;;;;;;26.12;23.09;94847.09;5046847;28;20094;-42
2021/01/23 09:52:44;;;;;;;4.28;1.40;;;;;;;26.17;23.32;94839.69;5048732;28;20033;-40
2021/01/23 09:55:09;;;;;;;6.40;1.70;;;;;;;26.23;23.97;94846.19;5048919;28;20535;-39
2021/01/23 09:57:35;;;;;;;5.80;1.70;;;;;;;26.29;23.84;94839.63;5045313;28;21498;-43
2021/01/23 10:00:02;;;;;;;3.55;1.67;;;;;;;26.37;24.50;94831.91;5044197;28;20532;-45
2021/01/23 10:02:33;;;;;;;7.45;1.50;;;;;;;26.44;24.61;94832.22;5041930;28;20060;-41
2021/01/23 10:04:58;;;;;;;7.28;1.55;;;;;;;26.48;24.02;94818.66;5046909;28;20024;-39
2021/01/23 10:07:24;;;;;;;11.50;1.55;;;;;;;26.55;24.31;94826.03;5057820;28;20954;-40
2021/01/23 10:09:49;;;;;;;5.25;1.67;;;;;;;26.60;24.21;94821.19;5064460;28;20102;-41
2021/01/23 10:12:15;;;;;;;12.15;1.75;;;;;;;26.64;24.57;94816.50;5059129;28;20040;-42
2021/01/23 10:14:40;;;;;;;9.43;2.15;;;;;;;26.69;24.70;94815.13;5057530;28;20036;-39
2021/01/23 10:17:06;;;;;;;10.20;1.90;;;;;;;26.74;24.42;94814.72;5056240;28;20042;-42
2021/01/23 10:19:31;;;;;;;16.20;2.35;;;;;;;26.79;24.83;94809.91;5065209;28;20036;-38
2021/01/23 10:22:00;;;;;;;6.65;1.70;;;;;;;26.83;24.97;94808.66;5048622;28;20098;-37
2021/01/23 10:24:26;;;;;;;7.25;1.80;;;;;;;26.88;25.01;94798.56;5061910;28;20898;-38
2021/01/23 10:26:51;;;;;;;12.70;1.90;;;;;;;26.90;24.97;94797.59;5048073;28;20125;-39
2021/01/23 10:29:17;;;;;;;7.22;1.70;;;;;;;26.93;25.41;94799.94;5059702;28;20044;-36
2021/01/23 10:31:43;;;;;;;8.13;1.90;;;;;;;26.96;25.31;94789.19;5059963;28;20048;-39
2021/01/23 10:34:09;;;;;;;8.05;2.05;;;;;;;26.98;25.61;94782.00;5057309;28;20056;-38
2021/01/23 10:36:35;;;;;;;24.48;2.80;;;;;;;27.02;25.06;94786.00;5061546;28;20173;-39
2021/01/23 10:39:01;;;;;;;11.55;2.20;;;;;;;27.00;24.71;94787.94;5064077;28;20037;-37
2021/01/23 10:41:26;;;;;;;10.02;2.38;;;;;;;27.01;24.85;94781.72;5055071;28;20049;-41
2021/01/23 10:43:52;;;;;;;10.38;2.28;;;;;;;27.01;24.63;94786.97;5057913;28;20059;-38
2021/01/23 10:46:17;;;;;;;11.95;2.38;;;;;;;27.02;26.19;94772.88;5060773;28;20161;-39
2021/01/23 10:48:43;;;;;;;7.85;1.92;;;;;;;27.03;26.95;94768.44;5050855;28;20036;-38
2021/01/23 10:51:09;;;;;;;9.57;1.85;;;;;;;27.06;26.92;94753.22;5046387;28;20044;-40
2021/01/23 10:53:34;;;;;;;7.45;1.77;;;;;;;27.08;27.09;94753.09;5039727;28;20040;-40
2021/01/23 10:56:00;;;;;;;8.30;1.85;;;;;;;27.10;26.80;94751.97;5041043;28;20033;-39
2021/01/23 10:58:26;;;;;;;8.63;2.03;;;;;;;27.11;27.06;94743.13;5039918;28;20144;-38
2021/01/23 11:00:51;;;;;;;6.88;1.83;;;;;;;27.13;26.73;94749.06;5046525;28;20118;-38
2021/01/23 11:03:17;;;;;;;9.07;1.65;;;;;;;27.17;26.87;94740.88;5044605;28;20751;-42
2021/01/23 11:05:43;;;;;;;6.10;2.15;;;;;;;27.20;27.13;94743.25;5045899;28;20036;-38
2021/01/23 11:08:09;;;;;;;5.32;1.95;;;;;;;27.23;27.11;94742.97;5047412;28;20033;-40
2021/01/23 11:10:35;;;;;;;6.70;2.10;;;;;;;27.24;27.26;94744.63;5050735;28;20048;-39
2021/01/23 11:13:01;;;;;;;18.13;2.42;;;;;;;27.26;26.83;94737.41;5045507;28;20072;-39
2021/01/23 11:15:27;;;;;;;17.40;2.35;;;;;;;27.32;26.71;94736.88;5049578;28;20097;-41
2021/01/23 11:17:53;;;;;;;14.15;2.17;;;;;;;27.33;26.65;94728.00;5052869;28;20505;-39
2021/01/23 11:20:18;;;;;;;11.88;1.83;;;;;;;27.36;27.21;94727.72;5046015;28;20032;-37
2021/01/23 11:22:43;;;;;;;10.32;2.00;;;;;;;27.38;26.97;94723.13;5049148;28;20036;-37
2021/01/23 11:25:14;;;;;;;8.57;1.92;;;;;;;27.43;27.62;94727.16;5046109;28;20036;-41
2021/01/23 11:27:39;;;;;;;5.00;1.90;;;;;;;27.44;27.84;94718.28;5051501;28;20041;-38
2021/01/23 11:30:07;;;;;;;9.75;2.33;;;;;;;27.46;27.69;94722.41;5050113;28;20036;-40
2021/01/23 11:32:33;;;;;;;6.63;2.28;;;;;;;27.50;26.30;94725.63;5029078;28;20059;-41
2021/01/23 11:34:58;;;;;;;8.70;2.13;;;;;;;27.52;27.20;94713.13;5032119;28;20036;-41
2021/01/23 11:37:24;;;;;;;4.60;2.03;;;;;;;27.54;27.03;94716.47;5031787;28;20123;-36